Time;durP1;ratioP1;P1;durP2;ratioP2;P2;SDS_P1;SDS_P2;PMS_P1;PMS_P2;Temp;Humidity;BMP_temperature;BMP_pressure;BME280_temperature;BME280_humidity;BME280_pressure;Samples;Min_cycle;Max_cycle;Signal;HPM_P1;HPM_P2
2021/09/25 00:01:50;;;;;;;15.33;8.73;;;;;;;;;;5017257;28;20513;-64
2021/09/25 00:04:16;;;;;;;14.33;11.00;;;;;;;;;;5032211;28;20529;-64
2021/09/25 00:06:42;;;;;;;21.70;13.03;;;;;;;;;;5033041;28;20399;-64
2021/09/25 00:09:08;;;;;;;18.73;8.93;;;;;;;;;;5032465;28;20450;-63
2021/09/25 00:11:34;;;;;;;16.03;9.83;;;;;;;;;;5033014;28;20418;-64
2021/09/25 00:14:00;;;;;;;13.40;9.20;;;;;;;;;;5032068;28;20933;-64
2021/09/25 00:16:27;;;;;;;19.97;9.80;;;;;;;;;;5033032;28;20403;-63
2021/09/25 00:18:53;;;;;;;14.63;8.43;;;;;;;;;;5032147;28;20494;-64
2021/09/25 00:21:20;;;;;;;27.50;11.40;;;;;;;;;;5035674;28;21013;-63
2021/09/25 00:23:46;;;;;;;21.10;10.30;;;;;;;;;;5036296;28;20453;-63
2021/09/25 00:26:12;;;;;;;16.20;9.00;;;;;;;;;;5037042;28;20403;-64
2021/09/25 00:28:38;;;;;;;13.90;8.97;;;;;;;;;;5035949;28;20418;-63
2021/09/25 00:31:04;;;;;;;19.90;9.10;;;;;;;;;;5017184;28;20412;-64
2021/09/25 00:33:30;;;;;;;9.03;7.20;;;;;;;;;;5017068;28;20503;-63
2021/09/25 00:35:56;;;;;;;10.77;8.07;;;;;;;;;;5035033;28;20434;-63
2021/09/25 00:38:22;;;;;;;11.30;7.73;;;;;;;;;;5036592;28;20482;-63
2021/09/25 00:40:48;;;;;;;11.93;7.77;;;;;;;;;;5034726;28;20458;-63
2021/09/25 00:43:14;;;;;;;11.00;7.70;;;;;;;;;;5036724;28;20407;-64
2021/09/25 00:45:40;;;;;;;11.17;7.27;;;;;;;;;;5035802;28;20434;-64
2021/09/25 00:48:06;;;;;;;9.13;6.83;;;;;;;;;;5036588;28;20442;-64
2021/09/25 00:50:33;;;;;;;10.00;7.43;;;;;;;;;;5035543;28;20434;-64
2021/09/25 00:52:59;;;;;;;13.73;7.37;;;;;;;;;;5036385;28;20415;-62
2021/09/25 00:55:25;;;;;;;9.70;7.47;;;;;;;;;;5035618;28;20868;-64
2021/09/25 00:57:53;;;;;;;10.10;6.93;;;;;;;;;;5036188;28;20437;-64
2021/09/25 01:00:20;;;;;;;8.03;6.60;;;;;;;;;;5035313;28;20426;-64
2021/09/25 01:02:46;;;;;;;8.30;6.20;;;;;;;;;;5036249;28;20406;-64
2021/09/25 01:05:15;;;;;;;10.53;7.60;;;;;;;;;;5034886;28;21052;-64
2021/09/25 01:07:41;;;;;;;8.53;6.40;;;;;;;;;;5035066;28;20450;-64
2021/09/25 01:10:07;;;;;;;9.57;6.80;;;;;;;;;;5034693;28;20568;-64
2021/09/25 01:12:34;;;;;;;9.27;6.03;;;;;;;;;;5036009;28;20414;-64
2021/09/25 01:15:00;;;;;;;9.63;6.53;;;;;;;;;;5029157;28;20430;-64
2021/09/25 01:17:26;;;;;;;9.57;6.50;;;;;;;;;;5028268;28;20427;-64
2021/09/25 01:19:52;;;;;;;13.47;7.50;;;;;;;;;;5035150;28;20430;-63
2021/09/25 01:22:18;;;;;;;10.23;7.40;;;;;;;;;;5035643;28;20446;-64
2021/09/25 01:24:44;;;;;;;10.77;6.90;;;;;;;;;;5034733;28;20411;-63
2021/09/25 01:27:10;;;;;;;9.23;7.17;;;;;;;;;;5035960;28;20835;-63
2021/09/25 01:29:37;;;;;;;11.67;8.00;;;;;;;;;;5033151;28;20417;-63
2021/09/25 01:32:03;;;;;;;16.20;7.90;;;;;;;;;;5034217;28;20445;-64
2021/09/25 01:34:29;;;;;;;13.10;8.33;;;;;;;;;;5035662;28;20406;-63
2021/09/25 01:36:56;;;;;;;10.03;7.00;;;;;;;;;;5034480;28;20513;-64
2021/09/25 01:39:22;;;;;;;13.30;7.63;;;;;;;;;;5034190;28;20446;-64
2021/09/25 01:41:48;;;;;;;11.00;7.03;;;;;;;;;;5034422;28;20462;-64
2021/09/25 01:44:14;;;;;;;11.30;7.47;;;;;;;;;;5035507;28;20403;-64
2021/09/25 01:46:40;;;;;;;10.80;7.60;;;;;;;;;;5034351;28;20938;-64
2021/09/25 01:49:06;;;;;;;9.67;7.13;;;;;;;;;;5021662;28;20510;-63
2021/09/25 01:51:33;;;;;;;9.47;7.20;;;;;;;;;;5015505;28;20514;-63
2021/09/25 01:53:59;;;;;;;9.37;5.87;;;;;;;;;;5015522;28;20452;-64
2021/09/25 01:56:25;;;;;;;10.67;7.17;;;;;;;;;;5029513;28;20441;-64
2021/09/25 01:58:51;;;;;;;8.50;6.87;;;;;;;;;;5035279;28;20469;-63
2021/09/25 02:01:17;;;;;;;13.80;7.47;;;;;;;;;;5021863;28;20459;-63
2021/09/25 02:03:43;;;;;;;10.20;6.33;;;;;;;;;;5034135;28;20437;-64
2021/09/25 02:06:10;;;;;;;9.50;6.63;;;;;;;;;;5035369;28;20439;-64
2021/09/25 02:08:37;;;;;;;9.07;6.57;;;;;;;;;;5037056;28;20465;-64
2021/09/25 02:11:04;;;;;;;7.97;5.60;;;;;;;;;;5030583;28;20429;-63
2021/09/25 02:13:30;;;;;;;11.33;6.97;;;;;;;;;;5017227;28;20403;-62
2021/09/25 02:15:57;;;;;;;10.10;6.40;;;;;;;;;;5025098;28;20449;-64
2021/09/25 02:18:23;;;;;;;8.37;6.67;;;;;;;;;;5036643;28;20426;-64
2021/09/25 02:20:49;;;;;;;9.77;7.33;;;;;;;;;;5035262;28;20462;-64
2021/09/25 02:23:15;;;;;;;11.37;7.07;;;;;;;;;;5034878;28;20476;-64
2021/09/25 02:25:41;;;;;;;7.03;6.17;;;;;;;;;;5037540;28;20434;-65
2021/09/25 02:28:07;;;;;;;10.03;6.47;;;;;;;;;;5039283;28;20540;-65
2021/09/25 02:30:33;;;;;;;7.10;6.00;;;;;;;;;;5038328;28;20786;-65
2021/09/25 02:33:00;;;;;;;11.07;7.20;;;;;;;;;;5038846;28;20768;-65
2021/09/25 02:35:26;;;;;;;7.60;6.07;;;;;;;;;;5038582;28;20431;-64
2021/09/25 02:37:52;;;;;;;9.03;6.30;;;;;;;;;;5039083;28;20818;-65
2021/09/25 02:40:19;;;;;;;10.53;6.93;;;;;;;;;;5038172;28;20458;-65
2021/09/25 02:42:46;;;;;;;12.43;7.73;;;;;;;;;;5038676;28;20899;-65
2021/09/25 02:45:12;;;;;;;8.47;7.10;;;;;;;;;;5036106;28;20438;-65
2021/09/25 02:47:39;;;;;;;8.47;6.90;;;;;;;;;;5033675;28;20443;-64
2021/09/25 02:50:06;;;;;;;11.37;7.00;;;;;;;;;;5019294;28;20489;-66
2021/09/25 02:52:32;;;;;;;8.67;6.40;;;;;;;;;;5026158;28;20911;-66
2021/09/25 02:54:59;;;;;;;13.80;7.33;;;;;;;;;;5019086;28;20422;-66
2021/09/25 02:57:25;;;;;;;9.33;6.73;;;;;;;;;;5036430;28;20504;-65
2021/09/25 02:59:51;;;;;;;10.03;6.50;;;;;;;;;;5038554;28;20489;-65
2021/09/25 03:02:17;;;;;;;10.73;6.77;;;;;;;;;;5019714;28;20458;-65
2021/09/25 03:04:43;;;;;;;12.10;7.20;;;;;;;;;;5019140;28;20407;-65
2021/09/25 03:07:09;;;;;;;9.90;6.47;;;;;;;;;;5018815;28;20428;-65
2021/09/25 03:09:35;;;;;;;10.23;7.20;;;;;;;;;;5019098;28;20400;-65
2021/09/25 03:12:01;;;;;;;9.87;6.43;;;;;;;;;;5034334;28;20434;-64
2021/09/25 03:14:28;;;;;;;9.57;6.90;;;;;;;;;;5037247;28;20411;-64
2021/09/25 03:16:54;;;;;;;11.10;6.80;;;;;;;;;;5037334;28;20430;-64
2021/09/25 03:19:20;;;;;;;9.93;7.07;;;;;;;;;;5039130;28;20454;-64
2021/09/25 03:21:46;;;;;;;8.10;5.87;;;;;;;;;;5025379;28;20455;-64
2021/09/25 03:24:12;;;;;;;10.20;7.57;;;;;;;;;;5018728;28;20803;-64
2021/09/25 03:26:38;;;;;;;8.97;7.10;;;;;;;;;;5029387;28;20883;-64
2021/09/25 03:29:05;;;;;;;11.70;7.20;;;;;;;;;;5037967;28;20565;-63
2021/09/25 03:31:31;;;;;;;9.50;5.90;;;;;;;;;;5026501;28;20435;-65
2021/09/25 03:33:57;;;;;;;6.90;5.53;;;;;;;;;;5017811;28;20495;-64
2021/09/25 03:36:23;;;;;;;11.83;7.17;;;;;;;;;;5025559;28;20433;-65
2021/09/25 03:38:50;;;;;;;9.20;6.53;;;;;;;;;;5028238;28;20466;-64
2021/09/25 03:41:16;;;;;;;9.57;6.40;;;;;;;;;;5021083;28;20490;-64
2021/09/25 03:43:42;;;;;;;9.80;6.83;;;;;;;;;;5017881;28;20415;-64
2021/09/25 03:46:08;;;;;;;9.17;6.60;;;;;;;;;;5024715;28;20426;-64
2021/09/25 03:48:34;;;;;;;7.30;5.43;;;;;;;;;;5037690;28;20427;-65
2021/09/25 03:51:00;;;;;;;9.20;6.37;;;;;;;;;;5030568;28;20432;-64
2021/09/25 03:53:26;;;;;;;8.90;5.80;;;;;;;;;;5017727;28;20404;-65
2021/09/25 03:55:52;;;;;;;9.83;6.03;;;;;;;;;;5020966;28;20432;-65
2021/09/25 03:58:18;;;;;;;8.30;5.50;;;;;;;;;;5038041;28;20648;-65
2021/09/25 04:00:44;;;;;;;6.80;5.30;;;;;;;;;;5033517;28;20458;-65
2021/09/25 04:03:11;;;;;;;6.77;5.30;;;;;;;;;;5028731;28;20426;-64
2021/09/25 04:05:37;;;;;;;8.30;6.10;;;;;;;;;;5035578;28;20402;-65
2021/09/25 04:08:03;;;;;;;10.73;6.67;;;;;;;;;;5017551;28;20443;-65
2021/09/25 04:10:29;;;;;;;9.87;6.27;;;;;;;;;;5018322;28;20955;-66
2021/09/25 04:12:55;;;;;;;9.30;6.33;;;;;;;;;;5038020;28;20406;-65
2021/09/25 04:15:22;;;;;;;11.50;6.90;;;;;;;;;;5037343;28;20756;-64
2021/09/25 04:17:48;;;;;;;7.50;5.30;;;;;;;;;;5036838;28;20430;-64
2021/09/25 04:20:15;;;;;;;11.13;6.30;;;;;;;;;;5037192;28;20915;-64
2021/09/25 04:22:41;;;;;;;8.50;5.40;;;;;;;;;;5036638;28;20782;-64
2021/09/25 04:25:07;;;;;;;9.67;6.20;;;;;;;;;;5024102;28;20458;-63
2021/09/25 04:27:34;;;;;;;9.80;5.57;;;;;;;;;;5032826;28;20451;-64
2021/09/25 04:30:01;;;;;;;7.20;5.80;;;;;;;;;;5038454;28;20403;-64
2021/09/25 04:32:27;;;;;;;6.80;5.70;;;;;;;;;;5035266;28;20431;-63
2021/09/25 04:34:54;;;;;;;7.80;5.47;;;;;;;;;;5036930;28;20403;-63
2021/09/25 04:37:20;;;;;;;6.97;5.23;;;;;;;;;;5023187;28;20435;-63
2021/09/25 04:39:46;;;;;;;6.53;5.17;;;;;;;;;;5016248;28;20473;-64
2021/09/25 04:42:12;;;;;;;8.87;6.40;;;;;;;;;;5029318;28;20488;-65
2021/09/25 04:44:38;;;;;;;8.40;5.83;;;;;;;;;;5036489;28;20557;-65
2021/09/25 04:47:04;;;;;;;7.40;5.97;;;;;;;;;;5035529;28;20951;-64
2021/09/25 04:49:30;;;;;;;7.73;5.40;;;;;;;;;;5037064;28;20891;-64
2021/09/25 04:51:56;;;;;;;8.37;6.10;;;;;;;;;;5036546;28;20510;-64
2021/09/25 04:54:22;;;;;;;6.60;5.43;;;;;;;;;;5037303;28;20494;-64
2021/09/25 04:56:48;;;;;;;9.80;5.43;;;;;;;;;;5036350;28;20438;-64
2021/09/25 04:59:14;;;;;;;6.87;5.60;;;;;;;;;;5037196;28;20423;-63
2021/09/25 05:01:41;;;;;;;8.30;5.50;;;;;;;;;;5028677;28;20474;-65
2021/09/25 05:04:10;;;;;;;8.40;5.30;;;;;;;;;;5016982;28;20454;-66
2021/09/25 05:06:36;;;;;;;8.23;5.90;;;;;;;;;;5038069;28;20427;-65
2021/09/25 05:09:02;;;;;;;8.40;5.40;;;;;;;;;;5038298;28;20446;-65
2021/09/25 05:11:28;;;;;;;12.33;7.03;;;;;;;;;;5040788;28;20433;-65
2021/09/25 05:13:54;;;;;;;7.90;5.70;;;;;;;;;;5042598;28;20410;-65
2021/09/25 05:16:21;;;;;;;11.20;6.03;;;;;;;;;;5040297;28;20422;-64
2021/09/25 05:18:47;;;;;;;8.20;5.70;;;;;;;;;;5041235;28;20517;-65
2021/09/25 05:21:13;;;;;;;8.60;5.83;;;;;;;;;;5040613;28;20454;-65
2021/09/25 05:23:39;;;;;;;8.63;5.63;;;;;;;;;;5040448;28;20406;-64
2021/09/25 05:26:05;;;;;;;9.27;5.40;;;;;;;;;;5040220;28;20438;-65
2021/09/25 05:28:32;;;;;;;7.50;5.30;;;;;;;;;;5039259;28;20426;-64
2021/09/25 05:30:58;;;;;;;8.70;5.40;;;;;;;;;;5040093;28;20457;-65
2021/09/25 05:33:24;;;;;;;7.53;5.97;;;;;;;;;;5040757;28;20405;-64
2021/09/25 05:35:50;;;;;;;9.87;6.00;;;;;;;;;;5040328;28;20403;-66
2021/09/25 05:38:16;;;;;;;8.60;5.80;;;;;;;;;;5040533;28;20462;-65
2021/09/25 05:40:42;;;;;;;9.07;6.20;;;;;;;;;;5041328;28;20446;-65
2021/09/25 05:43:08;;;;;;;8.67;6.13;;;;;;;;;;5023030;28;20449;-63
2021/09/25 05:45:34;;;;;;;9.87;5.80;;;;;;;;;;5019795;28;20400;-64
2021/09/25 05:48:00;;;;;;;9.57;6.40;;;;;;;;;;5020590;28;20455;-65
2021/09/25 05:50:26;;;;;;;10.00;6.97;;;;;;;;;;5021153;28;20396;-64
2021/09/25 05:52:52;;;;;;;11.93;6.83;;;;;;;;;;5020511;28;20953;-64
2021/09/25 05:55:20;;;;;;;10.60;7.23;;;;;;;;;;5020115;28;20483;-64
2021/09/25 05:57:46;;;;;;;7.90;5.80;;;;;;;;;;5035243;28;20485;-64
2021/09/25 06:00:13;;;;;;;8.00;6.13;;;;;;;;;;5040100;28;20403;-64
2021/09/25 06:02:43;;;;;;;7.20;5.63;;;;;;;;;;5025124;28;21007;-64
2021/09/25 06:05:09;;;;;;;7.93;6.20;;;;;;;;;;5020745;28;20412;-65
2021/09/25 06:07:36;;;;;;;11.17;6.23;;;;;;;;;;5019561;28;20459;-65
2021/09/25 06:10:02;;;;;;;8.10;6.50;;;;;;;;;;5019796;28;20419;-64
2021/09/25 06:12:28;;;;;;;9.67;6.00;;;;;;;;;;5019778;28;20448;-64
2021/09/25 06:14:54;;;;;;;7.63;5.83;;;;;;;;;;5019884;28;20400;-65
2021/09/25 06:17:21;;;;;;;9.73;6.23;;;;;;;;;;5033284;28;20794;-65
2021/09/25 06:19:47;;;;;;;10.00;5.53;;;;;;;;;;5039433;28;20403;-64
2021/09/25 06:22:13;;;;;;;9.20;6.50;;;;;;;;;;5038534;28;20477;-66
2021/09/25 06:24:39;;;;;;;9.63;5.70;;;;;;;;;;5039494;28;20411;-65
2021/09/25 06:27:05;;;;;;;9.57;5.50;;;;;;;;;;5035647;28;20454;-66
2021/09/25 06:29:31;;;;;;;8.73;6.80;;;;;;;;;;5019603;28;20404;-64
2021/09/25 06:31:57;;;;;;;11.60;7.03;;;;;;;;;;5021015;28;20510;-66
2021/09/25 06:34:23;;;;;;;8.23;7.00;;;;;;;;;;5037571;28;20812;-65
2021/09/25 06:36:50;;;;;;;9.90;6.17;;;;;;;;;;5036354;28;20407;-65
2021/09/25 06:39:16;;;;;;;7.93;6.07;;;;;;;;;;5036668;28;20439;-64
2021/09/25 06:41:42;;;;;;;8.60;6.47;;;;;;;;;;5035926;28;20446;-66
2021/09/25 06:44:08;;;;;;;7.67;6.10;;;;;;;;;;5034985;28;20431;-64
2021/09/25 06:46:34;;;;;;;8.27;6.20;;;;;;;;;;5034726;28;20406;-65
2021/09/25 06:49:01;;;;;;;8.60;5.63;;;;;;;;;;5034920;28;20510;-64
2021/09/25 06:51:27;;;;;;;9.13;6.13;;;;;;;;;;5024912;28;20430;-64
2021/09/25 06:53:54;;;;;;;11.90;7.07;;;;;;;;;;5032936;28;20840;-64
2021/09/25 06:56:21;;;;;;;7.20;5.00;;;;;;;;;;5035714;28;20490;-64
2021/09/25 06:58:47;;;;;;;9.70;6.00;;;;;;;;;;5018481;28;20972;-64
2021/09/25 07:01:13;;;;;;;8.97;6.10;;;;;;;;;;5014530;28;20478;-64
2021/09/25 07:03:39;;;;;;;9.00;6.10;;;;;;;;;;5029012;28;20904;-64
2021/09/25 07:06:06;;;;;;;7.23;5.80;;;;;;;;;;5034376;28;20452;-64
2021/09/25 07:08:32;;;;;;;8.70;5.53;;;;;;;;;;5033240;28;20450;-64
2021/09/25 07:10:58;;;;;;;7.90;5.60;;;;;;;;;;5034035;28;20509;-64
2021/09/25 07:13:24;;;;;;;10.97;6.93;;;;;;;;;;5032986;28;20427;-64
2021/09/25 07:15:50;;;;;;;10.83;6.57;;;;;;;;;;5032837;28;20406;-64
2021/09/25 07:18:16;;;;;;;11.07;7.47;;;;;;;;;;5022568;28;20576;-64
2021/09/25 07:20:43;;;;;;;11.10;7.40;;;;;;;;;;5014050;28;20814;-65
2021/09/25 07:23:10;;;;;;;11.67;6.10;;;;;;;;;;5023682;28;20831;-64
2021/09/25 07:25:39;;;;;;;8.40;6.20;;;;;;;;;;5032078;28;20501;-64
2021/09/25 07:28:06;;;;;;;7.53;5.30;;;;;;;;;;5024295;28;20438;-64
2021/09/25 07:30:32;;;;;;;8.67;5.60;;;;;;;;;;5014173;28;20832;-64
2021/09/25 07:33:00;;;;;;;7.00;4.60;;;;;;;;;;5021336;28;20785;-64
2021/09/25 07:35:27;;;;;;;6.00;4.67;;;;;;;;;;5033645;28;20762;-65
2021/09/25 07:37:53;;;;;;;5.70;4.13;;;;;;;;;;5032372;28;20465;-66
2021/09/25 07:40:19;;;;;;;7.50;4.70;;;;;;;;;;5033920;28;20388;-65
2021/09/25 07:42:45;;;;;;;5.80;4.30;;;;;;;;;;5032757;28;20419;-64
2021/09/25 07:45:11;;;;;;;5.47;4.07;;;;;;;;;;5033713;28;20405;-64
2021/09/25 07:47:38;;;;;;;4.10;3.30;;;;;;;;;;5031034;28;20443;-64
2021/09/25 07:50:06;;;;;;;4.27;3.50;;;;;;;;;;5033633;28;20430;-64
2021/09/25 07:52:32;;;;;;;4.40;3.63;;;;;;;;;;5032736;28;20419;-64
2021/09/25 07:54:58;;;;;;;3.90;3.03;;;;;;;;;;5033684;28;20406;-64
2021/09/25 07:57:25;;;;;;;7.00;3.70;;;;;;;;;;5032418;28;20426;-64
2021/09/25 07:59:51;;;;;;;4.70;4.23;;;;;;;;;;5033086;28;20406;-65
2021/09/25 08:02:17;;;;;;;5.30;3.70;;;;;;;;;;5032134;28;20439;-64
2021/09/25 08:04:43;;;;;;;4.30;3.70;;;;;;;;;;5033141;28;20414;-64
2021/09/25 08:07:09;;;;;;;5.90;2.90;;;;;;;;;;5032396;28;20406;-64
2021/09/25 08:09:35;;;;;;;4.63;3.47;;;;;;;;;;5013981;28;20822;-64
2021/09/25 08:12:01;;;;;;;4.40;3.30;;;;;;;;;;5013571;28;20509;-65
2021/09/25 08:14:27;;;;;;;3.50;2.80;;;;;;;;;;5031614;28;20480;-64
2021/09/25 08:16:53;;;;;;;7.27;3.70;;;;;;;;;;5033049;28;20399;-64
2021/09/25 08:19:19;;;;;;;4.10;3.30;;;;;;;;;;5032016;28;20527;-64
2021/09/25 08:21:45;;;;;;;4.47;3.50;;;;;;;;;;5032982;28;20811;-64
2021/09/25 08:24:11;;;;;;;3.80;2.70;;;;;;;;;;5016423;28;20971;-64
2021/09/25 08:26:37;;;;;;;5.57;3.43;;;;;;;;;;5016202;28;20406;-64
2021/09/25 08:29:04;;;;;;;4.03;3.17;;;;;;;;;;5032319;28;20496;-64
2021/09/25 08:31:30;;;;;;;3.87;3.00;;;;;;;;;;5034086;28;20804;-66
2021/09/25 08:33:57;;;;;;;5.50;3.43;;;;;;;;;;5024261;28;20434;-65
2021/09/25 08:36:23;;;;;;;4.50;3.67;;;;;;;;;;5018631;28;20470;-65
2021/09/25 08:38:49;;;;;;;4.10;3.70;;;;;;;;;;5027394;28;20462;-65
2021/09/25 08:41:16;;;;;;;5.43;3.10;;;;;;;;;;5040383;28;20447;-65
2021/09/25 08:43:42;;;;;;;4.23;3.37;;;;;;;;;;5042956;28;20426;-65
2021/09/25 08:46:08;;;;;;;4.00;3.20;;;;;;;;;;5042689;28;20399;-65
2021/09/25 08:48:37;;;;;;;6.53;3.70;;;;;;;;;;5041635;28;20508;-65
2021/09/25 08:51:03;;;;;;;5.40;4.10;;;;;;;;;;5044008;28;20440;-65
2021/09/25 08:53:29;;;;;;;11.00;3.60;;;;;;;;;;5042300;28;20497;-65
2021/09/25 08:55:55;;;;;;;4.70;3.23;;;;;;;;;;5036046;28;20513;-64
2021/09/25 08:58:21;;;;;;;4.57;2.93;;;;;;;;;;5026152;28;20453;-65
2021/09/25 09:00:48;;;;;;;5.70;3.30;;;;;;;;;;5043532;28;20450;-65
2021/09/25 09:03:20;;;;;;;4.63;3.80;;;;;;;;;;5040333;28;20457;-64
2021/09/25 09:05:47;;;;;;;5.00;4.07;;;;;;;;;;5039112;28;20403;-64
2021/09/25 09:08:13;;;;;;;6.83;3.63;;;;;;;;;;5036056;28;20478;-64
2021/09/25 09:10:39;;;;;;;6.27;3.53;;;;;;;;;;5037692;28;20517;-65
2021/09/25 09:13:06;;;;;;;3.93;3.30;;;;;;;;;;5037103;28;20406;-65
2021/09/25 09:15:32;;;;;;;5.00;3.77;;;;;;;;;;5018574;28;20404;-65
2021/09/25 09:18:00;;;;;;;4.80;3.43;;;;;;;;;;5018565;28;20432;-64
2021/09/25 09:20:27;;;;;;;3.97;3.07;;;;;;;;;;5023410;28;20456;-65
2021/09/25 09:23:12;;;;;;;4.10;3.20;;;;;;;;;;5024869;28;20420;-65
2021/09/25 09:25:39;;;;;;;4.57;3.20;;;;;;;;;;5023485;28;20838;-66
2021/09/25 09:28:10;;;;;;;4.67;3.30;;;;;;;;;;5034019;28;20512;-66
2021/09/25 09:30:36;;;;;;;4.20;3.30;;;;;;;;;;5043366;28;20493;-65
2021/09/25 09:33:02;;;;;;;4.50;3.40;;;;;;;;;;5043403;28;20447;-65
2021/09/25 09:35:30;;;;;;;4.20;3.13;;;;;;;;;;5040880;28;20841;-65
2021/09/25 09:37:58;;;;;;;4.17;3.13;;;;;;;;;;5043339;28;20939;-66
2021/09/25 09:40:25;;;;;;;5.47;3.60;;;;;;;;;;5024851;28;20419;-65
2021/09/25 09:42:52;;;;;;;4.23;3.27;;;;;;;;;;5023102;28;20400;-65
2021/09/25 09:45:25;;;;;;;5.07;3.70;;;;;;;;;;5038600;28;20462;-65
2021/09/25 09:47:52;;;;;;;8.13;3.00;;;;;;;;;;5042105;28;20427;-65
2021/09/25 09:50:19;;;;;;;4.70;3.07;;;;;;;;;;5040740;28;20488;-64
2021/09/25 09:52:45;;;;;;;4.50;3.47;;;;;;;;;;5040270;28;20407;-65
2021/09/25 09:55:21;;;;;;;5.13;3.70;;;;;;;;;;5040275;28;20923;-64
2021/09/25 09:57:59;;;;;;;4.83;3.30;;;;;;;;;;5041200;28;20419;-65
2021/09/25 10:00:25;;;;;;;4.13;3.47;;;;;;;;;;5038007;28;20426;-65
2021/09/25 10:02:52;;;;;;;5.47;3.60;;;;;;;;;;5039150;28;20411;-65
2021/09/25 10:05:18;;;;;;;4.20;3.30;;;;;;;;;;5038754;28;20423;-65
2021/09/25 10:07:44;;;;;;;4.80;3.57;;;;;;;;;;5039835;28;20422;-65
2021/09/25 10:10:10;;;;;;;4.10;3.47;;;;;;;;;;5039067;28;20832;-64
2021/09/25 10:12:37;;;;;;;4.27;3.13;;;;;;;;;;5039127;28;20405;-65
2021/09/25 10:15:04;;;;;;;4.83;3.10;;;;;;;;;;5038360;28;20434;-65
2021/09/25 10:17:30;;;;;;;7.13;3.60;;;;;;;;;;5033485;28;20796;-67
2021/09/25 10:19:56;;;;;;;3.93;2.73;;;;;;;;;;5037609;28;20422;-64
2021/09/25 10:22:25;;;;;;;4.87;3.23;;;;;;;;;;5035481;28;20458;-63
2021/09/25 10:24:56;;;;;;;4.43;3.33;;;;;;;;;;5033655;28;20426;-63
2021/09/25 10:27:26;;;;;;;4.70;2.97;;;;;;;;;;5035169;28;20565;-64
2021/09/25 10:29:52;;;;;;;4.30;2.93;;;;;;;;;;5032812;28;20438;-63
2021/09/25 10:32:18;;;;;;;5.23;3.13;;;;;;;;;;5034723;28;20884;-64
2021/09/25 10:34:54;;;;;;;3.43;2.80;;;;;;;;;;5034051;28;20512;-63
2021/09/25 10:37:20;;;;;;;4.10;2.80;;;;;;;;;;5034540;28;20406;-63
2021/09/25 10:39:55;;;;;;;4.30;2.83;;;;;;;;;;5033478;28;20470;-63
2021/09/25 10:42:21;;;;;;;3.27;2.50;;;;;;;;;;5034416;28;20891;-63
2021/09/25 10:44:52;;;;;;;3.40;2.80;;;;;;;;;;5023643;28;20485;-64
2021/09/25 10:47:20;;;;;;;6.20;4.70;;;;;;;;;;5034152;28;20414;-64
2021/09/25 10:49:59;;;;;;;5.20;2.60;;;;;;;;;;5029458;28;20449;-64
2021/09/25 10:52:44;;;;;;;4.57;2.60;;;;;;;;;;5014764;28;20538;-64
2021/09/25 10:55:19;;;;;;;3.97;2.53;;;;;;;;;;5021633;28;20426;-64
2021/09/25 10:58:05;;;;;;;4.67;3.23;;;;;;;;;;5034213;28;20428;-64
2021/09/25 11:00:31;;;;;;;3.57;2.83;;;;;;;;;;5033015;28;20456;-64
2021/09/25 11:02:57;;;;;;;3.97;2.90;;;;;;;;;;5034151;28;20406;-64
2021/09/25 11:05:58;;;;;;;3.63;2.40;;;;;;;;;;5032626;28;20432;-64
2021/09/25 11:08:30;;;;;;;5.23;3.77;;;;;;;;;;4953844;29;20524;-64
2021/09/25 11:11:10;;;;;;;4.17;2.83;;;;;;;;;;5007199;28;20435;-64
2021/09/25 11:13:54;;;;;;;4.50;2.80;;;;;;;;;;5014427;28;20407;-64
2021/09/25 11:16:40;;;;;;;3.60;2.63;;;;;;;;;;5029446;28;20784;-63
2021/09/25 11:19:09;;;;;;;3.13;2.20;;;;;;;;;;5033700;28;20507;-64
2021/09/25 11:21:36;;;;;;;4.27;2.60;;;;;;;;;;5032879;28;20462;-64
2021/09/25 11:24:02;;;;;;;5.03;2.50;;;;;;;;;;5034011;28;20410;-64
2021/09/25 11:26:28;;;;;;;4.17;2.60;;;;;;;;;;5016064;28;20513;-64
2021/09/25 11:29:05;;;;;;;3.53;2.63;;;;;;;;;;5013859;28;20423;-64
2021/09/25 11:31:32;;;;;;;3.13;2.20;;;;;;;;;;5030970;28;20779;-64
2021/09/25 11:33:59;;;;;;;3.80;2.37;;;;;;;;;;5027914;28;20465;-63
2021/09/25 11:36:28;;;;;;;3.20;2.30;;;;;;;;;;5016925;28;20519;-63
2021/09/25 11:38:54;;;;;;;3.87;2.80;;;;;;;;;;5014254;28;20462;-63
2021/09/25 11:41:20;;;;;;;3.10;2.50;;;;;;;;;;5028500;28;20454;-64
2021/09/25 11:43:57;;;;;;;2.77;2.20;;;;;;;;;;5033354;28;20450;-63
2021/09/25 11:46:24;;;;;;;6.13;2.60;;;;;;;;;;5031228;28;20914;-60
2021/09/25 11:48:54;;;;;;;4.47;2.80;;;;;;;;;;5033174;28;20781;-59
2021/09/25 11:51:22;;;;;;;4.23;2.27;;;;;;;;;;5032211;28;20429;-60
2021/09/25 11:53:53;;;;;;;4.17;2.30;;;;;;;;;;5033622;28;20413;-60
2021/09/25 11:56:28;;;;;;;4.60;3.10;;;;;;;;;;5032300;28;20449;-60
2021/09/25 11:58:58;;;;;;;4.40;2.70;;;;;;;;;;5032022;28;20426;-58
2021/09/25 12:01:24;;;;;;;3.17;2.80;;;;;;;;;;5029195;28;20970;-59
2021/09/25 12:03:50;;;;;;;6.57;2.63;;;;;;;;;;5032996;28;20394;-59
2021/09/25 12:06:16;;;;;;;5.03;2.77;;;;;;;;;;5032163;28;20435;-60
2021/09/25 12:08:42;;;;;;;3.30;2.30;;;;;;;;;;5032939;28;20419;-60
2021/09/25 12:11:09;;;;;;;3.30;2.17;;;;;;;;;;5032235;28;20434;-60
2021/09/25 12:13:37;;;;;;;4.20;2.57;;;;;;;;;;5032991;28;20892;-60
2021/09/25 12:16:04;;;;;;;3.63;2.90;;;;;;;;;;5025001;28;20435;-60
2021/09/25 12:18:30;;;;;;;3.37;2.33;;;;;;;;;;5013221;28;20419;-60
2021/09/25 12:20:58;;;;;;;4.00;2.40;;;;;;;;;;5018590;28;20994;-61
2021/09/25 12:23:24;;;;;;;3.63;2.60;;;;;;;;;;5032879;28;20868;-60
2021/09/25 12:25:51;;;;;;;3.40;2.63;;;;;;;;;;5027433;28;20435;-60
2021/09/25 12:28:28;;;;;;;3.13;2.70;;;;;;;;;;5013048;28;20430;-59
2021/09/25 12:30:54;;;;;;;4.37;2.40;;;;;;;;;;5017911;28;20488;-60
2021/09/25 12:33:20;;;;;;;6.73;2.60;;;;;;;;;;5032813;28;20411;-60
2021/09/25 12:36:07;;;;;;;4.10;2.40;;;;;;;;;;5031766;28;20434;-60
2021/09/25 12:38:35;;;;;;;3.93;3.03;;;;;;;;;;5032223;28;20946;-61
2021/09/25 12:41:02;;;;;;;3.07;2.67;;;;;;;;;;5030585;28;20466;-60
2021/09/25 12:43:32;;;;;;;8.33;5.03;;;;;;;;;;5032868;28;20395;-60
2021/09/25 12:46:09;;;;;;;2.80;2.47;;;;;;;;;;5030585;28;20529;-60
2021/09/25 12:48:35;;;;;;;3.63;2.33;;;;;;;;;;5031579;28;20438;-60
2021/09/25 12:51:01;;;;;;;3.67;2.50;;;;;;;;;;5026859;28;20518;-61
2021/09/25 12:53:29;;;;;;;3.53;2.63;;;;;;;;;;5013086;28;20400;-60
2021/09/25 12:55:55;;;;;;;3.00;2.40;;;;;;;;;;5016880;28;20434;-61
2021/09/25 12:58:21;;;;;;;3.30;2.30;;;;;;;;;;5033043;28;20429;-62
2021/09/25 13:00:54;;;;;;;4.03;2.43;;;;;;;;;;5031646;28;20426;-60
2021/09/25 13:03:23;;;;;;;3.30;2.60;;;;;;;;;;5030815;28;20424;-60
2021/09/25 13:05:49;;;;;;;4.53;2.87;;;;;;;;;;5028905;28;20425;-59
2021/09/25 13:08:15;;;;;;;5.07;3.20;;;;;;;;;;5013240;28;20423;-60
2021/09/25 13:10:48;;;;;;;3.30;2.37;;;;;;;;;;5014266;28;20399;-60
2021/09/25 13:13:15;;;;;;;4.90;2.87;;;;;;;;;;5032562;28;20407;-61
2021/09/25 13:15:41;;;;;;;4.13;2.60;;;;;;;;;;5031615;28;20435;-61
2021/09/25 13:18:07;;;;;;;3.97;2.40;;;;;;;;;;5032663;28;20862;-61
2021/09/25 13:20:33;;;;;;;4.80;2.33;;;;;;;;;;5031660;28;20454;-61
2021/09/25 13:23:05;;;;;;;2.70;2.13;;;;;;;;;;5025325;28;20415;-61
2021/09/25 13:25:31;;;;;;;3.33;2.57;;;;;;;;;;5012734;28;20415;-61
2021/09/25 13:27:58;;;;;;;4.97;3.33;;;;;;;;;;5033926;28;20476;-61
2021/09/25 13:30:25;;;;;;;3.33;2.30;;;;;;;;;;5036368;28;20509;-61
2021/09/25 13:32:51;;;;;;;3.63;2.50;;;;;;;;;;5016547;28;20490;-61
2021/09/25 13:35:17;;;;;;;3.07;2.33;;;;;;;;;;5016164;28;20396;-61
2021/09/25 13:37:43;;;;;;;4.40;2.30;;;;;;;;;;5032881;28;20958;-63
2021/09/25 13:40:11;;;;;;;3.50;2.60;;;;;;;;;;5035740;28;20405;-60
2021/09/25 13:42:38;;;;;;;4.40;2.70;;;;;;;;;;5034638;28;20458;-60
2021/09/25 13:45:04;;;;;;;6.63;2.20;;;;;;;;;;5035843;28;20740;-61
2021/09/25 13:47:30;;;;;;;3.83;2.87;;;;;;;;;;5034737;28;20445;-60
2021/09/25 13:49:56;;;;;;;3.67;2.70;;;;;;;;;;5035667;28;20399;-60
2021/09/25 13:52:22;;;;;;;4.17;2.70;;;;;;;;;;5020838;28;20514;-61
2021/09/25 13:54:49;;;;;;;4.93;3.90;;;;;;;;;;5015627;28;20403;-61
2021/09/25 13:57:15;;;;;;;3.83;2.70;;;;;;;;;;5026814;28;20430;-60
2021/09/25 13:59:41;;;;;;;5.07;2.40;;;;;;;;;;5035387;28;20414;-59
2021/09/25 14:02:09;;;;;;;3.90;2.87;;;;;;;;;;5023409;28;20603;-58
2021/09/25 14:04:35;;;;;;;3.53;2.50;;;;;;;;;;5015907;28;20491;-61
2021/09/25 14:07:01;;;;;;;3.80;2.57;;;;;;;;;;5024517;28;20438;-61
2021/09/25 14:09:32;;;;;;;4.37;2.70;;;;;;;;;;5035270;28;20505;-60
2021/09/25 14:11:58;;;;;;;5.07;2.77;;;;;;;;;;5034459;28;20440;-59
2021/09/25 14:14:24;;;;;;;4.20;2.83;;;;;;;;;;5035251;28;20401;-61
2021/09/25 14:16:50;;;;;;;4.37;2.70;;;;;;;;;;5031689;28;20418;-61
2021/09/25 14:19:16;;;;;;;4.80;3.00;;;;;;;;;;5035261;28;20450;-61
2021/09/25 14:21:42;;;;;;;7.13;2.90;;;;;;;;;;5033954;28;20462;-61
2021/09/25 14:24:09;;;;;;;3.97;2.90;;;;;;;;;;5035310;28;20418;-61
2021/09/25 14:26:36;;;;;;;4.13;2.83;;;;;;;;;;5033888;28;20478;-61
2021/09/25 14:29:06;;;;;;;3.47;2.50;;;;;;;;;;5034155;28;20537;-61
2021/09/25 14:31:32;;;;;;;4.47;2.90;;;;;;;;;;5033888;28;20433;-60
2021/09/25 14:33:58;;;;;;;3.87;2.80;;;;;;;;;;5034782;28;21009;-60
2021/09/25 14:36:24;;;;;;;5.67;3.10;;;;;;;;;;5033749;28;20430;-60
2021/09/25 14:38:50;;;;;;;4.50;2.30;;;;;;;;;;5034066;28;20958;-60
2021/09/25 14:41:16;;;;;;;3.40;2.80;;;;;;;;;;5033670;28;20462;-60